sensor_id;sensor_type;location;lat;lon;timestamp;P1;durP1;ratioP1;P2;durP2;ratioP2
2824;SDS011;1420;51.324;12.344;2023-08-17T00:02:16;8.76;;;8.06;;
2824;SDS011;1420;51.324;12.344;2023-08-17T00:04:43;9.16;;;8.26;;
2824;SDS011;1420;51.324;12.344;2023-08-17T00:07:10;8.92;;;7.98;;
2824;SDS011;1420;51.324;12.344;2023-08-17T00:09:38;8.84;;;8.04;;
2824;SDS011;1420;51.324;12.344;2023-08-17T00:12:05;7.94;;;7.28;;
2824;SDS011;1420;51.324;12.344;2023-08-17T00:14:32;8.80;;;8.10;;
2824;SDS011;1420;51.324;12.344;2023-08-17T00:16:59;8.16;;;7.46;;
2824;SDS011;1420;51.324;12.344;2023-08-17T00:19:26;8.10;;;7.40;;
2824;SDS011;1420;51.324;12.344;2023-08-17T00:21:54;8.20;;;7.60;;
2824;SDS011;1420;51.324;12.344;2023-08-17T00:24:21;8.96;;;7.70;;
2824;SDS011;1420;51.324;12.344;2023-08-17T00:26:48;8.02;;;7.24;;
2824;SDS011;1420;51.324;12.344;2023-08-17T00:29:15;7.62;;;7.00;;
2824;SDS011;1420;51.324;12.344;2023-08-17T00:31:42;8.70;;;8.00;;
2824;SDS011;1420;51.324;12.344;2023-08-17T00:34:09;7.90;;;7.20;;
2824;SDS011;1420;51.324;12.344;2023-08-17T00:36:37;8.04;;;7.34;;
2824;SDS011;1420;51.324;12.344;2023-08-17T00:39:04;8.14;;;7.40;;
2824;SDS011;1420;51.324;12.344;2023-08-17T00:41:31;8.38;;;7.62;;
2824;SDS011;1420;51.324;12.344;2023-08-17T00:43:59;8.50;;;7.70;;
2824;SDS011;1420;51.324;12.344;2023-08-17T00:46:25;8.22;;;7.52;;
2824;SDS011;1420;51.324;12.344;2023-08-17T00:48:54;8.18;;;7.52;;
2824;SDS011;1420;51.324;12.344;2023-08-17T00:51:23;8.04;;;7.34;;
2824;SDS011;1420;51.324;12.344;2023-08-17T00:53:50;8.84;;;8.04;;
2824;SDS011;1420;51.324;12.344;2023-08-17T00:56:18;8.24;;;7.40;;
2824;SDS011;1420;51.324;12.344;2023-08-17T00:58:45;8.74;;;7.94;;
2824;SDS011;1420;51.324;12.344;2023-08-17T01:01:13;8.56;;;7.42;;
2824;SDS011;1420;51.324;12.344;2023-08-17T01:03:40;8.06;;;7.36;;
2824;SDS011;1420;51.324;12.344;2023-08-17T01:06:08;7.98;;;7.18;;
2824;SDS011;1420;51.324;12.344;2023-08-17T01:08:35;8.30;;;7.50;;
2824;SDS011;1420;51.324;12.344;2023-08-17T01:11:14;7.42;;;6.68;;
2824;SDS011;1420;51.324;12.344;2023-08-17T01:13:57;7.68;;;7.00;;
2824;SDS011;1420;51.324;12.344;2023-08-17T01:16:26;7.46;;;6.86;;
2824;SDS011;1420;51.324;12.344;2023-08-17T01:18:52;8.34;;;7.58;;
2824;SDS011;1420;51.324;12.344;2023-08-17T01:21:20;8.58;;;7.88;;
2824;SDS011;1420;51.324;12.344;2023-08-17T01:23:49;9.80;;;8.80;;
2824;SDS011;1420;51.324;12.344;2023-08-17T01:26:16;10.12;;;7.70;;
2824;SDS011;1420;51.324;12.344;2023-08-17T01:28:44;8.24;;;7.54;;
2824;SDS011;1420;51.324;12.344;2023-08-17T01:31:14;9.32;;;8.00;;
2824;SDS011;1420;51.324;12.344;2023-08-17T01:33:44;8.22;;;7.52;;
2824;SDS011;1420;51.324;12.344;2023-08-17T01:36:13;7.80;;;6.64;;
2824;SDS011;1420;51.324;12.344;2023-08-17T01:38:40;7.82;;;7.30;;
2824;SDS011;1420;51.324;12.344;2023-08-17T01:41:09;8.26;;;7.58;;
2824;SDS011;1420;51.324;12.344;2023-08-17T01:43:35;8.82;;;8.12;;
2824;SDS011;1420;51.324;12.344;2023-08-17T01:46:02;10.50;;;8.66;;
2824;SDS011;1420;51.324;12.344;2023-08-17T01:48:30;8.46;;;7.72;;
2824;SDS011;1420;51.324;12.344;2023-08-17T01:50:58;8.36;;;7.66;;
2824;SDS011;1420;51.324;12.344;2023-08-17T01:53:26;7.92;;;7.22;;
2824;SDS011;1420;51.324;12.344;2023-08-17T01:55:54;8.56;;;7.82;;
2824;SDS011;1420;51.324;12.344;2023-08-17T01:58:21;7.84;;;7.12;;
2824;SDS011;1420;51.324;12.344;2023-08-17T02:00:48;7.82;;;7.14;;
2824;SDS011;1420;51.324;12.344;2023-08-17T02:03:15;7.62;;;7.02;;
2824;SDS011;1420;51.324;12.344;2023-08-17T02:05:45;7.70;;;7.10;;
2824;SDS011;1420;51.324;12.344;2023-08-17T02:08:11;6.34;;;5.84;;
2824;SDS011;1420;51.324;12.344;2023-08-17T02:10:39;8.76;;;7.46;;
2824;SDS011;1420;51.324;12.344;2023-08-17T02:13:07;7.66;;;6.68;;
2824;SDS011;1420;51.324;12.344;2023-08-17T02:15:37;6.06;;;5.44;;
2824;SDS011;1420;51.324;12.344;2023-08-17T02:18:01;4.90;;;4.54;;
2824;SDS011;1420;51.324;12.344;2023-08-17T02:20:28;3.46;;;3.26;;
2824;SDS011;1420;51.324;12.344;2023-08-17T02:22:55;3.34;;;3.10;;
2824;SDS011;1420;51.324;12.344;2023-08-17T02:25:23;2.30;;;2.20;;
2824;SDS011;1420;51.324;12.344;2023-08-17T02:27:50;2.40;;;2.20;;
2824;SDS011;1420;51.324;12.344;2023-08-17T02:30:17;1.50;;;1.40;;
2824;SDS011;1420;51.324;12.344;2023-08-17T02:32:44;0.90;;;0.90;;
2824;SDS011;1420;51.324;12.344;2023-08-17T02:35:11;1.58;;;0.74;;
2824;SDS011;1420;51.324;12.344;2023-08-17T02:37:39;0.70;;;0.70;;
2824;SDS011;1420;51.324;12.344;2023-08-17T02:40:07;0.68;;;0.68;;
2824;SDS011;1420;51.324;12.344;2023-08-17T02:42:34;1.12;;;1.00;;
2824;SDS011;1420;51.324;12.344;2023-08-17T02:45:02;0.60;;;0.60;;
2824;SDS011;1420;51.324;12.344;2023-08-17T02:47:29;1.48;;;0.62;;
2824;SDS011;1420;51.324;12.344;2023-08-17T02:49:56;0.76;;;0.74;;
2824;SDS011;1420;51.324;12.344;2023-08-17T02:52:23;0.74;;;0.74;;
2824;SDS011;1420;51.324;12.344;2023-08-17T02:54:50;1.66;;;0.70;;
2824;SDS011;1420;51.324;12.344;2023-08-17T02:57:18;0.94;;;0.84;;
2824;SDS011;1420;51.324;12.344;2023-08-17T02:59:45;1.04;;;0.54;;
2824;SDS011;1420;51.324;12.344;2023-08-17T03:02:12;0.80;;;0.70;;
2824;SDS011;1420;51.324;12.344;2023-08-17T03:04:40;0.60;;;0.60;;
2824;SDS011;1420;51.324;12.344;2023-08-17T03:07:07;0.94;;;0.94;;
2824;SDS011;1420;51.324;12.344;2023-08-17T03:09:35;0.60;;;0.60;;
2824;SDS011;1420;51.324;12.344;2023-08-17T03:12:02;1.70;;;0.70;;
2824;SDS011;1420;51.324;12.344;2023-08-17T03:14:29;1.44;;;0.60;;
2824;SDS011;1420;51.324;12.344;2023-08-17T03:16:56;0.70;;;0.50;;
2824;SDS011;1420;51.324;12.344;2023-08-17T03:19:24;1.20;;;0.60;;
2824;SDS011;1420;51.324;12.344;2023-08-17T03:21:52;0.70;;;0.60;;
2824;SDS011;1420;51.324;12.344;2023-08-17T03:24:20;0.84;;;0.66;;
2824;SDS011;1420;51.324;12.344;2023-08-17T03:26:47;1.48;;;0.70;;
2824;SDS011;1420;51.324;12.344;2023-08-17T03:29:14;1.50;;;0.70;;
2824;SDS011;1420;51.324;12.344;2023-08-17T03:31:41;1.02;;;0.80;;
2824;SDS011;1420;51.324;12.344;2023-08-17T03:34:08;1.42;;;0.80;;
2824;SDS011;1420;51.324;12.344;2023-08-17T03:36:36;2.02;;;0.98;;
2824;SDS011;1420;51.324;12.344;2023-08-17T03:39:04;0.90;;;0.90;;
2824;SDS011;1420;51.324;12.344;2023-08-17T03:41:31;0.90;;;0.90;;
2824;SDS011;1420;51.324;12.344;2023-08-17T03:43:58;2.12;;;1.04;;
2824;SDS011;1420;51.324;12.344;2023-08-17T03:46:25;1.86;;;1.08;;
2824;SDS011;1420;51.324;12.344;2023-08-17T03:48:52;1.30;;;1.20;;
2824;SDS011;1420;51.324;12.344;2023-08-17T03:51:20;1.70;;;1.38;;
2824;SDS011;1420;51.324;12.344;2023-08-17T03:53:47;1.90;;;1.20;;
2824;SDS011;1420;51.324;12.344;2023-08-17T03:56:14;1.98;;;1.88;;
2824;SDS011;1420;51.324;12.344;2023-08-17T03:58:41;1.90;;;1.36;;
2824;SDS011;1420;51.324;12.344;2023-08-17T04:01:08;1.86;;;1.12;;
2824;SDS011;1420;51.324;12.344;2023-08-17T04:03:36;2.84;;;1.50;;
2824;SDS011;1420;51.324;12.344;2023-08-17T04:06:04;3.66;;;1.34;;
2824;SDS011;1420;51.324;12.344;2023-08-17T04:08:31;1.60;;;1.46;;
2824;SDS011;1420;51.324;12.344;2023-08-17T04:10:58;2.30;;;1.82;;
2824;SDS011;1420;51.324;12.344;2023-08-17T04:13:25;4.10;;;1.20;;
2824;SDS011;1420;51.324;12.344;2023-08-17T04:15:52;4.00;;;1.08;;
2824;SDS011;1420;51.324;12.344;2023-08-17T04:18:20;4.54;;;1.64;;
2824;SDS011;1420;51.324;12.344;2023-08-17T04:20:47;2.80;;;1.26;;
2824;SDS011;1420;51.324;12.344;2023-08-17T04:23:14;3.04;;;1.20;;
2824;SDS011;1420;51.324;12.344;2023-08-17T04:25:41;2.04;;;1.20;;
2824;SDS011;1420;51.324;12.344;2023-08-17T04:28:08;2.70;;;1.42;;
2824;SDS011;1420;51.324;12.344;2023-08-17T04:30:37;4.06;;;1.52;;
2824;SDS011;1420;51.324;12.344;2023-08-17T04:33:03;1.74;;;1.40;;
2824;SDS011;1420;51.324;12.344;2023-08-17T04:35:30;1.74;;;1.62;;
2824;SDS011;1420;51.324;12.344;2023-08-17T04:37:58;2.28;;;1.50;;
2824;SDS011;1420;51.324;12.344;2023-08-17T04:40:25;1.64;;;1.54;;
2824;SDS011;1420;51.324;12.344;2023-08-17T04:42:52;3.48;;;1.34;;
2824;SDS011;1420;51.324;12.344;2023-08-17T04:45:19;1.50;;;1.40;;
2824;SDS011;1420;51.324;12.344;2023-08-17T04:47:46;1.38;;;1.28;;
2824;SDS011;1420;51.324;12.344;2023-08-17T04:50:14;2.08;;;1.30;;
2824;SDS011;1420;51.324;12.344;2023-08-17T04:52:42;1.50;;;1.36;;
2824;SDS011;1420;51.324;12.344;2023-08-17T04:55:09;1.32;;;1.22;;
2824;SDS011;1420;51.324;12.344;2023-08-17T04:57:37;3.24;;;1.14;;
2824;SDS011;1420;51.324;12.344;2023-08-17T05:00:05;3.22;;;1.22;;
2824;SDS011;1420;51.324;12.344;2023-08-17T05:02:35;1.30;;;1.16;;
2824;SDS011;1420;51.324;12.344;2023-08-17T05:05:03;3.44;;;1.66;;
2824;SDS011;1420;51.324;12.344;2023-08-17T05:07:30;1.42;;;1.14;;
2824;SDS011;1420;51.324;12.344;2023-08-17T05:09:57;2.10;;;1.32;;
2824;SDS011;1420;51.324;12.344;2023-08-17T05:12:24;1.38;;;1.28;;
2824;SDS011;1420;51.324;12.344;2023-08-17T05:14:51;3.06;;;1.88;;
2824;SDS011;1420;51.324;12.344;2023-08-17T05:17:18;2.12;;;1.24;;
2824;SDS011;1420;51.324;12.344;2023-08-17T05:19:46;1.28;;;1.04;;
2824;SDS011;1420;51.324;12.344;2023-08-17T05:22:14;3.68;;;1.10;;
2824;SDS011;1420;51.324;12.344;2023-08-17T05:24:40;2.48;;;1.10;;
2824;SDS011;1420;51.324;12.344;2023-08-17T05:27:07;1.70;;;1.10;;
2824;SDS011;1420;51.324;12.344;2023-08-17T05:29:34;1.34;;;1.18;;
2824;SDS011;1420;51.324;12.344;2023-08-17T05:32:02;1.10;;;1.00;;
2824;SDS011;1420;51.324;12.344;2023-08-17T05:34:29;1.18;;;1.08;;
2824;SDS011;1420;51.324;12.344;2023-08-17T05:36:56;1.40;;;1.00;;
2824;SDS011;1420;51.324;12.344;2023-08-17T05:39:23;2.28;;;1.08;;
2824;SDS011;1420;51.324;12.344;2023-08-17T05:41:51;1.38;;;1.20;;
2824;SDS011;1420;51.324;12.344;2023-08-17T05:44:19;1.66;;;1.40;;
2824;SDS011;1420;51.324;12.344;2023-08-17T05:46:47;2.82;;;1.10;;
2824;SDS011;1420;51.324;12.344;2023-08-17T05:49:14;3.70;;;1.56;;
2824;SDS011;1420;51.324;12.344;2023-08-17T05:51:42;1.74;;;1.22;;
2824;SDS011;1420;51.324;12.344;2023-08-17T05:54:10;2.92;;;1.38;;
2824;SDS011;1420;51.324;12.344;2023-08-17T05:56:37;2.62;;;1.28;;
2824;SDS011;1420;51.324;12.344;2023-08-17T05:59:04;1.50;;;1.40;;
2824;SDS011;1420;51.324;12.344;2023-08-17T06:01:32;2.12;;;1.50;;
2824;SDS011;1420;51.324;12.344;2023-08-17T06:04:00;1.52;;;1.42;;
2824;SDS011;1420;51.324;12.344;2023-08-17T06:06:28;3.42;;;1.44;;
2824;SDS011;1420;51.324;12.344;2023-08-17T06:08:56;1.30;;;1.20;;
2824;SDS011;1420;51.324;12.344;2023-08-17T06:11:23;1.56;;;1.46;;
2824;SDS011;1420;51.324;12.344;2023-08-17T06:13:51;1.74;;;1.48;;
2824;SDS011;1420;51.324;12.344;2023-08-17T06:16:18;2.12;;;1.60;;
2824;SDS011;1420;51.324;12.344;2023-08-17T06:18:45;1.50;;;1.40;;
2824;SDS011;1420;51.324;12.344;2023-08-17T06:21:12;1.80;;;1.70;;
2824;SDS011;1420;51.324;12.344;2023-08-17T06:23:39;1.94;;;1.26;;
2824;SDS011;1420;51.324;12.344;2023-08-17T06:26:07;2.02;;;1.82;;
2824;SDS011;1420;51.324;12.344;2023-08-17T06:28:34;1.50;;;1.40;;
2824;SDS011;1420;51.324;12.344;2023-08-17T06:31:01;2.10;;;1.82;;
2824;SDS011;1420;51.324;12.344;2023-08-17T06:33:28;1.98;;;1.50;;
2824;SDS011;1420;51.324;12.344;2023-08-17T06:35:55;2.42;;;1.68;;
2824;SDS011;1420;51.324;12.344;2023-08-17T06:38:23;1.90;;;1.80;;
2824;SDS011;1420;51.324;12.344;2023-08-17T06:40:52;2.66;;;2.32;;
2824;SDS011;1420;51.324;12.344;2023-08-17T06:43:19;2.14;;;2.04;;
2824;SDS011;1420;51.324;12.344;2023-08-17T06:45:47;3.08;;;2.86;;
2824;SDS011;1420;51.324;12.344;2023-08-17T06:48:15;4.34;;;3.10;;
2824;SDS011;1420;51.324;12.344;2023-08-17T06:50:43;4.10;;;2.68;;
2824;SDS011;1420;51.324;12.344;2023-08-17T06:53:11;2.26;;;2.16;;
2824;SDS011;1420;51.324;12.344;2023-08-17T06:55:39;2.56;;;2.42;;
2824;SDS011;1420;51.324;12.344;2023-08-17T06:58:06;2.06;;;1.96;;
2824;SDS011;1420;51.324;12.344;2023-08-17T07:00:34;2.98;;;2.78;;
2824;SDS011;1420;51.324;12.344;2023-08-17T07:03:02;2.62;;;2.52;;
2824;SDS011;1420;51.324;12.344;2023-08-17T07:05:30;5.10;;;2.60;;
2824;SDS011;1420;51.324;12.344;2023-08-17T07:07:57;3.90;;;3.06;;
2824;SDS011;1420;51.324;12.344;2023-08-17T07:10:27;2.40;;;2.30;;
2824;SDS011;1420;51.324;12.344;2023-08-17T07:12:52;2.42;;;2.22;;
2824;SDS011;1420;51.324;12.344;2023-08-17T07:15:20;2.86;;;2.30;;
2824;SDS011;1420;51.324;12.344;2023-08-17T07:17:48;2.96;;;2.64;;
2824;SDS011;1420;51.324;12.344;2023-08-17T07:20:16;2.74;;;2.54;;
2824;SDS011;1420;51.324;12.344;2023-08-17T07:22:44;3.62;;;2.70;;
2824;SDS011;1420;51.324;12.344;2023-08-17T07:25:11;3.88;;;3.50;;
2824;SDS011;1420;51.324;12.344;2023-08-17T07:27:38;3.24;;;2.90;;
2824;SDS011;1420;51.324;12.344;2023-08-17T07:30:05;4.72;;;3.64;;
2824;SDS011;1420;51.324;12.344;2023-08-17T07:32:34;6.20;;;4.42;;
2824;SDS011;1420;51.324;12.344;2023-08-17T07:35:01;6.34;;;5.78;;
2824;SDS011;1420;51.324;12.344;2023-08-17T07:37:28;5.38;;;4.98;;
2824;SDS011;1420;51.324;12.344;2023-08-17T07:39:55;6.40;;;5.80;;
2824;SDS011;1420;51.324;12.344;2023-08-17T07:42:24;7.54;;;6.78;;
2824;SDS011;1420;51.324;12.344;2023-08-17T07:44:54;6.76;;;6.26;;
2824;SDS011;1420;51.324;12.344;2023-08-17T07:47:21;7.26;;;6.70;;
2824;SDS011;1420;51.324;12.344;2023-08-17T07:49:49;7.40;;;6.80;;
2824;SDS011;1420;51.324;12.344;2023-08-17T07:52:16;6.70;;;6.14;;
2824;SDS011;1420;51.324;12.344;2023-08-17T07:54:44;7.16;;;6.62;;
2824;SDS011;1420;51.324;12.344;2023-08-17T07:57:10;5.32;;;4.82;;
2824;SDS011;1420;51.324;12.344;2023-08-17T07:59:37;7.78;;;6.98;;
2824;SDS011;1420;51.324;12.344;2023-08-17T08:02:05;8.04;;;7.44;;
2824;SDS011;1420;51.324;12.344;2023-08-17T08:04:32;8.68;;;7.98;;
2824;SDS011;1420;51.324;12.344;2023-08-17T08:06:59;9.66;;;8.78;;
2824;SDS011;1420;51.324;12.344;2023-08-17T08:09:26;11.78;;;9.44;;
2824;SDS011;1420;51.324;12.344;2023-08-17T08:11:53;9.98;;;9.02;;
2824;SDS011;1420;51.324;12.344;2023-08-17T08:14:21;10.28;;;9.18;;
2824;SDS011;1420;51.324;12.344;2023-08-17T08:16:48;9.70;;;8.84;;
2824;SDS011;1420;51.324;12.344;2023-08-17T08:19:15;8.66;;;8.02;;
2824;SDS011;1420;51.324;12.344;2023-08-17T08:21:42;9.04;;;8.24;;
2824;SDS011;1420;51.324;12.344;2023-08-17T08:24:09;8.74;;;8.04;;
2824;SDS011;1420;51.324;12.344;2023-08-17T08:26:37;10.70;;;8.26;;
2824;SDS011;1420;51.324;12.344;2023-08-17T08:29:04;8.22;;;7.52;;
2824;SDS011;1420;51.324;12.344;2023-08-17T08:31:31;8.26;;;7.60;;
2824;SDS011;1420;51.324;12.344;2023-08-17T08:33:58;8.58;;;7.88;;
2824;SDS011;1420;51.324;12.344;2023-08-17T08:36:26;7.36;;;6.86;;
2824;SDS011;1420;51.324;12.344;2023-08-17T08:38:53;7.82;;;7.18;;
2824;SDS011;1420;51.324;12.344;2023-08-17T08:41:20;7.88;;;7.28;;
2824;SDS011;1420;51.324;12.344;2023-08-17T08:43:47;6.52;;;6.02;;
2824;SDS011;1420;51.324;12.344;2023-08-17T08:46:16;7.10;;;6.40;;
2824;SDS011;1420;51.324;12.344;2023-08-17T08:48:42;8.76;;;7.96;;
2824;SDS011;1420;51.324;12.344;2023-08-17T08:51:09;6.64;;;6.04;;
2824;SDS011;1420;51.324;12.344;2023-08-17T08:53:38;8.18;;;7.48;;
2824;SDS011;1420;51.324;12.344;2023-08-17T08:56:06;9.20;;;8.50;;
2824;SDS011;1420;51.324;12.344;2023-08-17T08:58:31;9.40;;;8.60;;
2824;SDS011;1420;51.324;12.344;2023-08-17T09:01:02;9.32;;;8.22;;
2824;SDS011;1420;51.324;12.344;2023-08-17T09:03:29;9.50;;;8.76;;
2824;SDS011;1420;51.324;12.344;2023-08-17T09:05:56;9.02;;;8.22;;
2824;SDS011;1420;51.324;12.344;2023-08-17T09:08:25;9.38;;;8.58;;
2824;SDS011;1420;51.324;12.344;2023-08-17T09:10:50;8.38;;;7.78;;
2824;SDS011;1420;51.324;12.344;2023-08-17T09:13:18;8.48;;;7.78;;
2824;SDS011;1420;51.324;12.344;2023-08-17T09:15:45;9.62;;;8.88;;
2824;SDS011;1420;51.324;12.344;2023-08-17T09:18:12;10.50;;;9.50;;
2824;SDS011;1420;51.324;12.344;2023-08-17T09:20:41;9.42;;;8.56;;
2824;SDS011;1420;51.324;12.344;2023-08-17T09:23:10;10.62;;;9.72;;
2824;SDS011;1420;51.324;12.344;2023-08-17T09:25:42;9.86;;;8.94;;
2824;SDS011;1420;51.324;12.344;2023-08-17T09:28:08;10.20;;;9.34;;
2824;SDS011;1420;51.324;12.344;2023-08-17T09:31:11;9.98;;;9.20;;
2824;SDS011;1420;51.324;12.344;2023-08-17T09:33:21;9.92;;;9.04;;
2824;SDS011;1420;51.324;12.344;2023-08-17T09:35:50;9.84;;;8.90;;
2824;SDS011;1420;51.324;12.344;2023-08-17T09:38:17;11.08;;;10.18;;
2824;SDS011;1420;51.324;12.344;2023-08-17T09:40:44;10.04;;;9.34;;
2824;SDS011;1420;51.324;12.344;2023-08-17T09:43:11;10.42;;;9.46;;
2824;SDS011;1420;51.324;12.344;2023-08-17T09:45:39;11.10;;;10.02;;
2824;SDS011;1420;51.324;12.344;2023-08-17T09:48:07;9.82;;;8.92;;
2824;SDS011;1420;51.324;12.344;2023-08-17T09:50:34;9.48;;;8.82;;
2824;SDS011;1420;51.324;12.344;2023-08-17T09:53:02;10.62;;;9.72;;
2824;SDS011;1420;51.324;12.344;2023-08-17T09:55:30;9.98;;;9.22;;
2824;SDS011;1420;51.324;12.344;2023-08-17T09:58:00;10.00;;;9.20;;
2824;SDS011;1420;51.324;12.344;2023-08-17T10:00:27;9.46;;;8.76;;
2824;SDS011;1420;51.324;12.344;2023-08-17T10:02:54;10.40;;;9.42;;
2824;SDS011;1420;51.324;12.344;2023-08-17T10:05:21;9.94;;;9.04;;
2824;SDS011;1420;51.324;12.344;2023-08-17T10:07:54;10.92;;;10.02;;
2824;SDS011;1420;51.324;12.344;2023-08-17T10:10:22;10.38;;;9.68;;
2824;SDS011;1420;51.324;12.344;2023-08-17T10:12:48;9.42;;;8.56;;
2824;SDS011;1420;51.324;12.344;2023-08-17T10:15:15;8.64;;;7.94;;
2824;SDS011;1420;51.324;12.344;2023-08-17T10:17:43;10.36;;;9.60;;
2824;SDS011;1420;51.324;12.344;2023-08-17T10:20:11;9.50;;;8.80;;
2824;SDS011;1420;51.324;12.344;2023-08-17T10:22:39;9.70;;;9.00;;
2824;SDS011;1420;51.324;12.344;2023-08-17T10:25:06;8.66;;;8.12;;
2824;SDS011;1420;51.324;12.344;2023-08-17T10:27:34;10.26;;;9.56;;
2824;SDS011;1420;51.324;12.344;2023-08-17T10:30:01;11.02;;;10.26;;
2824;SDS011;1420;51.324;12.344;2023-08-17T10:32:28;10.38;;;9.60;;
2824;SDS011;1420;51.324;12.344;2023-08-17T10:34:56;11.18;;;10.28;;
2824;SDS011;1420;51.324;12.344;2023-08-17T10:37:23;10.18;;;9.42;;
2824;SDS011;1420;51.324;12.344;2023-08-17T10:39:51;10.20;;;9.40;;
2824;SDS011;1420;51.324;12.344;2023-08-17T10:42:37;10.24;;;9.52;;
2824;SDS011;1420;51.324;12.344;2023-08-17T10:47:43;9.84;;;9.12;;
2824;SDS011;1420;51.324;12.344;2023-08-17T10:52:47;9.98;;;9.22;;
2824;SDS011;1420;51.324;12.344;2023-08-17T10:55:14;10.76;;;9.96;;
2824;SDS011;1420;51.324;12.344;2023-08-17T10:57:42;9.18;;;8.48;;
2824;SDS011;1420;51.324;12.344;2023-08-17T11:00:13;9.42;;;8.72;;
2824;SDS011;1420;51.324;12.344;2023-08-17T11:02:43;9.60;;;8.90;;
2824;SDS011;1420;51.324;12.344;2023-08-17T11:05:10;10.18;;;9.38;;
2824;SDS011;1420;51.324;12.344;2023-08-17T11:07:39;8.40;;;7.82;;
2824;SDS011;1420;51.324;12.344;2023-08-17T11:10:41;9.62;;;8.78;;
2824;SDS011;1420;51.324;12.344;2023-08-17T11:12:56;8.64;;;8.04;;
2824;SDS011;1420;51.324;12.344;2023-08-17T11:15:23;8.94;;;8.24;;
2824;SDS011;1420;51.324;12.344;2023-08-17T11:17:50;8.62;;;8.02;;
2824;SDS011;1420;51.324;12.344;2023-08-17T11:20:18;10.64;;;9.52;;
2824;SDS011;1420;51.324;12.344;2023-08-17T11:22:45;9.08;;;8.38;;
2824;SDS011;1420;51.324;12.344;2023-08-17T11:25:12;9.14;;;8.44;;
2824;SDS011;1420;51.324;12.344;2023-08-17T11:27:39;8.14;;;7.52;;
2824;SDS011;1420;51.324;12.344;2023-08-17T11:30:06;8.40;;;7.86;;
2824;SDS011;1420;51.324;12.344;2023-08-17T11:32:35;9.42;;;8.62;;
2824;SDS011;1420;51.324;12.344;2023-08-17T11:35:02;9.40;;;8.60;;
2824;SDS011;1420;51.324;12.344;2023-08-17T11:37:29;8.54;;;7.94;;
2824;SDS011;1420;51.324;12.344;2023-08-17T11:39:56;8.88;;;8.04;;
2824;SDS011;1420;51.324;12.344;2023-08-17T11:42:24;8.54;;;7.88;;
2824;SDS011;1420;51.324;12.344;2023-08-17T11:44:51;8.82;;;8.12;;
2824;SDS011;1420;51.324;12.344;2023-08-17T11:47:18;8.48;;;7.88;;
2824;SDS011;1420;51.324;12.344;2023-08-17T11:49:47;9.52;;;8.46;;
2824;SDS011;1420;51.324;12.344;2023-08-17T11:52:13;8.50;;;7.90;;
2824;SDS011;1420;51.324;12.344;2023-08-17T11:54:41;9.00;;;8.20;;
2824;SDS011;1420;51.324;12.344;2023-08-17T11:57:08;9.32;;;8.62;;
2824;SDS011;1420;51.324;12.344;2023-08-17T11:59:35;9.36;;;8.58;;
2824;SDS011;1420;51.324;12.344;2023-08-17T12:02:02;9.90;;;9.20;;
2824;SDS011;1420;51.324;12.344;2023-08-17T12:04:31;8.92;;;8.12;;
2824;SDS011;1420;51.324;12.344;2023-08-17T12:06:57;8.58;;;7.98;;
2824;SDS011;1420;51.324;12.344;2023-08-17T12:09:24;8.70;;;8.08;;
2824;SDS011;1420;51.324;12.344;2023-08-17T12:11:57;10.56;;;9.54;;
2824;SDS011;1420;51.324;12.344;2023-08-17T12:14:26;8.64;;;7.94;;
2824;SDS011;1420;51.324;12.344;2023-08-17T12:16:53;10.10;;;9.20;;
2824;SDS011;1420;51.324;12.344;2023-08-17T12:19:20;10.66;;;8.16;;
2824;SDS011;1420;51.324;12.344;2023-08-17T12:21:48;8.48;;;7.68;;
2824;SDS011;1420;51.324;12.344;2023-08-17T12:24:15;10.20;;;9.40;;
2824;SDS011;1420;51.324;12.344;2023-08-17T12:26:42;9.00;;;8.30;;
2824;SDS011;1420;51.324;12.344;2023-08-17T12:29:10;10.58;;;9.68;;
2824;SDS011;1420;51.324;12.344;2023-08-17T12:31:38;9.10;;;8.26;;
2824;SDS011;1420;51.324;12.344;2023-08-17T12:34:05;9.10;;;8.30;;
2824;SDS011;1420;51.324;12.344;2023-08-17T12:36:32;11.66;;;8.46;;
2824;SDS011;1420;51.324;12.344;2023-08-17T12:39:00;10.18;;;9.30;;
2824;SDS011;1420;51.324;12.344;2023-08-17T12:41:28;10.84;;;9.98;;
2824;SDS011;1420;51.324;12.344;2023-08-17T12:43:56;9.52;;;8.74;;
2824;SDS011;1420;51.324;12.344;2023-08-17T12:46:24;10.58;;;9.78;;
2824;SDS011;1420;51.324;12.344;2023-08-17T12:48:52;9.18;;;8.28;;
2824;SDS011;1420;51.324;12.344;2023-08-17T12:51:19;10.02;;;9.22;;
2824;SDS011;1420;51.324;12.344;2023-08-17T12:53:46;10.02;;;9.12;;
2824;SDS011;1420;51.324;12.344;2023-08-17T12:56:14;9.72;;;9.02;;
2824;SDS011;1420;51.324;12.344;2023-08-17T12:58:42;8.72;;;8.02;;
2824;SDS011;1420;51.324;12.344;2023-08-17T13:01:11;10.04;;;9.20;;
2824;SDS011;1420;51.324;12.344;2023-08-17T13:03:39;9.60;;;8.80;;
2824;SDS011;1420;51.324;12.344;2023-08-17T13:06:07;9.50;;;8.60;;
2824;SDS011;1420;51.324;12.344;2023-08-17T13:08:33;10.08;;;9.18;;
2824;SDS011;1420;51.324;12.344;2023-08-17T13:11:00;9.68;;;8.90;;
2824;SDS011;1420;51.324;12.344;2023-08-17T13:13:28;9.56;;;8.82;;
2824;SDS011;1420;51.324;12.344;2023-08-17T13:15:55;10.06;;;9.36;;
2824;SDS011;1420;51.324;12.344;2023-08-17T13:18:22;10.88;;;9.90;;
2824;SDS011;1420;51.324;12.344;2023-08-17T13:20:49;9.42;;;8.54;;
2824;SDS011;1420;51.324;12.344;2023-08-17T13:23:17;9.34;;;8.54;;
2824;SDS011;1420;51.324;12.344;2023-08-17T13:25:44;9.60;;;8.68;;
2824;SDS011;1420;51.324;12.344;2023-08-17T13:28:12;10.30;;;9.50;;
2824;SDS011;1420;51.324;12.344;2023-08-17T13:30:39;9.80;;;8.90;;
2824;SDS011;1420;51.324;12.344;2023-08-17T13:33:06;10.20;;;9.40;;
2824;SDS011;1420;51.324;12.344;2023-08-17T13:35:33;9.76;;;8.76;;
2824;SDS011;1420;51.324;12.344;2023-08-17T13:38:01;8.88;;;8.18;;
2824;SDS011;1420;51.324;12.344;2023-08-17T13:40:28;10.68;;;9.80;;
2824;SDS011;1420;51.324;12.344;2023-08-17T13:42:55;8.84;;;8.14;;
2824;SDS011;1420;51.324;12.344;2023-08-17T13:45:22;9.92;;;9.04;;
2824;SDS011;1420;51.324;12.344;2023-08-17T13:47:49;9.32;;;8.52;;
2824;SDS011;1420;51.324;12.344;2023-08-17T13:50:17;10.10;;;9.10;;
2824;SDS011;1420;51.324;12.344;2023-08-17T13:52:44;9.80;;;8.92;;
2824;SDS011;1420;51.324;12.344;2023-08-17T13:55:11;10.32;;;9.52;;
2824;SDS011;1420;51.324;12.344;2023-08-17T13:57:38;10.36;;;9.46;;
2824;SDS011;1420;51.324;12.344;2023-08-17T14:00:06;9.94;;;9.12;;
2824;SDS011;1420;51.324;12.344;2023-08-17T14:02:34;8.96;;;8.16;;
2824;SDS011;1420;51.324;12.344;2023-08-17T14:05:01;9.48;;;8.68;;
2824;SDS011;1420;51.324;12.344;2023-08-17T14:07:29;9.62;;;8.88;;
2824;SDS011;1420;51.324;12.344;2023-08-17T14:09:57;10.08;;;9.28;;
2824;SDS011;1420;51.324;12.344;2023-08-17T14:12:24;14.82;;;8.66;;
2824;SDS011;1420;51.324;12.344;2023-08-17T14:14:51;10.22;;;9.30;;
2824;SDS011;1420;51.324;12.344;2023-08-17T14:17:19;9.88;;;8.98;;
2824;SDS011;1420;51.324;12.344;2023-08-17T14:19:46;9.32;;;8.52;;
2824;SDS011;1420;51.324;12.344;2023-08-17T14:22:13;9.56;;;8.66;;
2824;SDS011;1420;51.324;12.344;2023-08-17T14:24:40;9.70;;;8.90;;
2824;SDS011;1420;51.324;12.344;2023-08-17T14:27:07;9.72;;;9.00;;
2824;SDS011;1420;51.324;12.344;2023-08-17T14:29:35;9.98;;;9.18;;
2824;SDS011;1420;51.324;12.344;2023-08-17T14:32:02;9.98;;;9.14;;
2824;SDS011;1420;51.324;12.344;2023-08-17T14:34:29;9.52;;;8.80;;
2824;SDS011;1420;51.324;12.344;2023-08-17T14:36:57;9.16;;;8.36;;
2824;SDS011;1420;51.324;12.344;2023-08-17T14:39:25;9.40;;;8.60;;
2824;SDS011;1420;51.324;12.344;2023-08-17T14:41:53;9.80;;;8.90;;
2824;SDS011;1420;51.324;12.344;2023-08-17T14:44:21;10.42;;;9.58;;
2824;SDS011;1420;51.324;12.344;2023-08-17T14:46:49;8.86;;;8.04;;
2824;SDS011;1420;51.324;12.344;2023-08-17T14:49:17;10.10;;;9.10;;
2824;SDS011;1420;51.324;12.344;2023-08-17T14:51:45;10.34;;;9.50;;
2824;SDS011;1420;51.324;12.344;2023-08-17T14:54:12;9.92;;;9.06;;
2824;SDS011;1420;51.324;12.344;2023-08-17T14:56:40;9.50;;;8.70;;
2824;SDS011;1420;51.324;12.344;2023-08-17T14:59:08;9.86;;;8.98;;
2824;SDS011;1420;51.324;12.344;2023-08-17T15:01:36;9.88;;;9.08;;
2824;SDS011;1420;51.324;12.344;2023-08-17T15:04:03;11.50;;;9.86;;
2824;SDS011;1420;51.324;12.344;2023-08-17T15:06:31;10.16;;;9.26;;